Aigaion — SYMC — position and weather

sailwx.info

Track history (hours):
 
Tides and Currents Weather Stations Pressure Air Temp Water Temp Dewpoint Dewpoint Depression Visibility Wind Speed Wind Dir Waves Ship Positions

Aigaion

Last reported at 2014-Oct-20 03:31 UTC. Time now 2014-Oct-22 21:41 UTC.
Position N 28°18' E 123°37'.

Length 289 m; draft 8.3 m.

Type: Cargo ship. MMSI: 240174000.

Date/timePositionNaut miles runAvg speedWind from/ knotsBaromVisibWave heightAir tempDewpointWater temp
2014-Oct-20 03:31N 28°18' E 123°37'148 9.0
2014-Oct-19 11:06N 30°45' E 123°20'5 8.9
2014-Oct-19 10:29N 30°48' E 123°15'9 9.3
2014-Oct-19 09:34N 30°53' E 123°06'10 9.4
2014-Oct-19 08:33N 30°58' E 122°57'19 9.4
2014-Oct-19 06:33N 31°05' E 122°37'1110.8
2014-Oct-19 05:33N 31°05' E 122°24'1714.6
2014-Oct-19 04:22N 31°13' E 122°06'1314.8
2014-Oct-19 03:30N 31°16' E 121°52'1313.3
2014-Oct-19 02:33N 31°22' E 121°38'9 9.0
2014-Oct-19 01:33N 31°26' E 121°29'6 5.5
2014-Oct-19 00:33N 31°30' E 121°25'1211.3
2014-Oct-18 23:28N 31°38' E 121°14'4 1.5
2014-Oct-18 20:29N 31°41' E 121°10'0 0.0
2014-Oct-18 12:23N 31°41' E 121°10'0 0.0
2014-Oct-18 10:17N 31°41' E 121°10'0 0.0
2014-Oct-18 08:29N 31°41' E 121°10'0 0.0
2014-Oct-18 06:17N 31°41' E 121°10'0 0.0
2014-Oct-18 04:11N 31°41' E 121°10'0 0.0
2014-Oct-18 03:05N 31°41' E 121°10'0 0.0
2014-Oct-18 01:11N 31°41' E 121°10'0 0.0
2014-Oct-17 23:11N 31°41' E 121°10'0 0.0
2014-Oct-17 20:17N 31°41' E 121°10'0 0.0
2014-Oct-17 18:26N 31°41' E 121°10'0 0.0
2014-Oct-17 16:29N 31°41' E 121°10'0 0.0
2014-Oct-17 12:27N 31°41' E 121°10'8 8.3
2014-Oct-17 11:33N 31°36' E 121°17'1312.7
2014-Oct-17 10:33N 31°28' E 121°28'9 9.1
2014-Oct-17 09:33N 31°23' E 121°37'1211.6
2014-Oct-17 08:33N 31°17' E 121°49'  
2014-Oct-11 06:17N 30°60' E 122°57'9 9.4
2014-Oct-11 05:21N 30°52' E 123°01'8 9.6
2014-Oct-11 04:33N 30°44' E 123°02'22 9.9
2014-Oct-11 02:18N 30°22' E 123°03'5 6.6
2014-Oct-11 01:33N 30°22' E 122°57'8 7.5
2014-Oct-11 00:33N 30°25' E 122°49'10 9.5
2014-Oct-10 23:31N 30°31' E 122°40'1111.8
2014-Oct-10 22:33N 30°38' E 122°30'5 4.5
2014-Oct-10 21:30N 30°40' E 122°25'0 0.0
2014-Oct-10 20:12N 30°40' E 122°25'0 0.0
2014-Oct-10 18:12N 30°40' E 122°25'0 0.0
2014-Oct-10 15:18N 30°40' E 122°25'0 0.0
2014-Oct-10 12:18N 30°40' E 122°25'0 0.0
2014-Oct-10 11:18N 30°40' E 122°25'0 0.0
2014-Oct-10 10:18N 30°40' E 122°25'0 0.0
2014-Oct-10 09:24N 30°40' E 122°25'  
Track history (hours):
 
Tides and Currents Weather Stations Pressure Air Temp Water Temp Dewpoint Dewpoint Depression Visibility Wind Speed Wind Dir Waves Ship Positions

Aigaion

Last reported at 2014-Oct-20 03:31 UTC. Time now 2014-Oct-22 21:41 UTC.
Position N 28°18' E 123°37'.

Length 289 m; draft 8.3 m.

Type: Cargo ship. MMSI: 240174000.

Date/timePositionNaut miles runAvg speedWind from/ knotsBaromVisibWave heightAir tempDewpointWater temp
2014-Oct-20 03:31N 28°18' E 123°37'148 9.0
2014-Oct-19 11:06N 30°45' E 123°20'5 8.9
2014-Oct-19 10:29N 30°48' E 123°15'9 9.3
2014-Oct-19 09:34N 30°53' E 123°06'10 9.4
2014-Oct-19 08:33N 30°58' E 122°57'19 9.4
2014-Oct-19 06:33N 31°05' E 122°37'1110.8
2014-Oct-19 05:33N 31°05' E 122°24'1714.6
2014-Oct-19 04:22N 31°13' E 122°06'1314.8
2014-Oct-19 03:30N 31°16' E 121°52'1313.3
2014-Oct-19 02:33N 31°22' E 121°38'9 9.0
2014-Oct-19 01:33N 31°26' E 121°29'6 5.5
2014-Oct-19 00:33N 31°30' E 121°25'1211.3
2014-Oct-18 23:28N 31°38' E 121°14'4 1.5
2014-Oct-18 20:29N 31°41' E 121°10'0 0.0
2014-Oct-18 12:23N 31°41' E 121°10'0 0.0
2014-Oct-18 10:17N 31°41' E 121°10'0 0.0
2014-Oct-18 08:29N 31°41' E 121°10'0 0.0
2014-Oct-18 06:17N 31°41' E 121°10'0 0.0
2014-Oct-18 04:11N 31°41' E 121°10'0 0.0
2014-Oct-18 03:05N 31°41' E 121°10'0 0.0
2014-Oct-18 01:11N 31°41' E 121°10'0 0.0
2014-Oct-17 23:11N 31°41' E 121°10'0 0.0
2014-Oct-17 20:17N 31°41' E 121°10'0 0.0
2014-Oct-17 18:26N 31°41' E 121°10'0 0.0
2014-Oct-17 16:29N 31°41' E 121°10'0 0.0
2014-Oct-17 12:27N 31°41' E 121°10'8 8.3
2014-Oct-17 11:33N 31°36' E 121°17'1312.7
2014-Oct-17 10:33N 31°28' E 121°28'9 9.1
2014-Oct-17 09:33N 31°23' E 121°37'1211.6
2014-Oct-17 08:33N 31°17' E 121°49'  
2014-Oct-11 06:17N 30°60' E 122°57'9 9.4
2014-Oct-11 05:21N 30°52' E 123°01'8 9.6
2014-Oct-11 04:33N 30°44' E 123°02'22 9.9
2014-Oct-11 02:18N 30°22' E 123°03'5 6.6
2014-Oct-11 01:33N 30°22' E 122°57'8 7.5
2014-Oct-11 00:33N 30°25' E 122°49'10 9.5
2014-Oct-10 23:31N 30°31' E 122°40'1111.8
2014-Oct-10 22:33N 30°38' E 122°30'5 4.5
2014-Oct-10 21:30N 30°40' E 122°25'0 0.0
2014-Oct-10 20:12N 30°40' E 122°25'0 0.0
2014-Oct-10 18:12N 30°40' E 122°25'0 0.0
2014-Oct-10 15:18N 30°40' E 122°25'0 0.0
2014-Oct-10 12:18N 30°40' E 122°25'0 0.0
2014-Oct-10 11:18N 30°40' E 122°25'0 0.0
2014-Oct-10 10:18N 30°40' E 122°25'0 0.0
2014-Oct-10 09:24N 30°40' E 122°25'  

Dump ship's entire track history